Time;durP1;ratioP1;P1;durP2;ratioP2;P2;SDS_P1;SDS_P2;PMS_P1;PMS_P2;Temp;Humidity;BMP_temperature;BMP_pressure;BME280_temperature;BME280_humidity;BME280_pressure;Samples;Min_cycle;Max_cycle;Signal;HPM_P1;HPM_P2
2022/07/14 00:01:15;;;;;;;8.77;2.50;;;;;;;23.35;52.45;100931.84;9899304;30;20658;-83
2022/07/14 00:06:17;;;;;;;8.27;2.78;;;;;;;22.91;53.55;100951.19;9891920;30;20605;-82
2022/07/14 00:11:20;;;;;;;12.75;2.90;;;;;;;23.19;52.46;100937.59;9909976;29;20259;-83
2022/07/14 00:16:23;;;;;;;6.88;2.40;;;;;;;23.06;53.25;100946.66;9897693;30;20553;-83
2022/07/14 00:21:25;;;;;;;11.70;3.03;;;;;;;23.03;53.02;100951.06;9870444;29;20780;-83
2022/07/14 00:26:27;;;;;;;9.27;2.80;;;;;;;23.44;51.76;100946.72;9924193;29;20294;-83
2022/07/14 00:31:30;;;;;;;5.75;2.05;;;;;;;23.32;51.76;100936.28;9912279;29;20257;-82
2022/07/14 00:36:32;;;;;;;9.15;2.78;;;;;;;22.59;53.34;100951.19;9904181;29;20259;-82
2022/07/14 00:41:35;;;;;;;11.43;2.38;;;;;;;22.15;54.72;100941.09;9893361;30;20249;-83
2022/07/14 00:46:38;;;;;;;13.73;2.53;;;;;;;22.86;52.62;100943.72;9909554;29;20237;-82
2022/07/14 00:51:40;;;;;;;12.40;2.65;;;;;;;22.76;52.44;100938.59;9881578;30;20230;-83
2022/07/14 00:56:43;;;;;;;9.70;2.85;;;;;;;22.71;52.84;100933.19;9893456;30;20233;-83
2022/07/14 01:01:46;;;;;;;10.45;2.85;;;;;;;22.74;53.00;100934.47;9914988;29;20570;-83
2022/07/14 01:06:48;;;;;;;12.57;2.78;;;;;;;22.48;53.82;100933.00;9889837;30;20568;-83
2022/07/14 01:11:51;;;;;;;8.20;2.92;;;;;;;21.79;55.29;100933.56;9895123;30;20225;-83
2022/07/14 01:16:55;;;;;;;10.43;2.90;;;;;;;22.24;54.23;100936.03;9869906;30;20333;-84
2022/07/14 01:21:57;;;;;;;11.50;2.45;;;;;;;22.57;53.34;100930.81;9861991;30;20286;-83
2022/07/14 01:27:00;;;;;;;16.00;2.95;;;;;;;22.35;54.08;100939.97;9873998;30;20689;-84
2022/07/14 01:32:03;;;;;;;12.55;2.90;;;;;;;22.25;54.12;100940.53;9875014;30;20636;-84
2022/07/14 01:37:06;;;;;;;12.98;3.13;;;;;;;22.28;54.36;100952.03;9859176;30;20233;-84
2022/07/14 01:42:08;;;;;;;10.15;2.70;;;;;;;21.85;55.42;100938.59;9859034;29;20309;-84
2022/07/14 01:47:11;;;;;;;12.77;3.08;;;;;;;21.69;55.93;100928.38;9902510;29;20250;-84
2022/07/14 01:52:14;;;;;;;8.88;2.30;;;;;;;21.71;56.05;100921.13;9903127;30;20607;-84
2022/07/14 01:57:16;;;;;;;11.88;2.90;;;;;;;21.79;56.10;100931.53;9857353;29;20205;-84
2022/07/14 02:02:20;;;;;;;9.77;2.50;;;;;;;22.11;55.02;100948.69;9861627;30;20256;-84
2022/07/14 02:07:22;;;;;;;8.93;3.20;;;;;;;22.32;54.50;100935.00;9895146;30;20269;-85
2022/07/14 02:12:37;;;;;;;14.05;3.20;;;;;;;22.00;55.45;100945.56;9896040;29;20346;-84
2022/07/14 02:17:43;;;;;;;10.80;2.85;;;;;;;22.15;54.76;100949.63;9909794;29;20213;-85
2022/07/14 02:22:47;;;;;;;9.13;3.00;;;;;;;21.99;55.35;100957.31;9881880;29;20217;-85
2022/07/14 02:27:49;;;;;;;13.40;2.88;;;;;;;21.46;57.02;100960.25;9905758;29;20208;-84
2022/07/14 02:32:55;;;;;;;13.43;3.15;;;;;;;21.92;55.54;100953.06;9901699;29;20236;-84
2022/07/14 02:38:00;;;;;;;12.68;3.58;;;;;;;21.92;55.48;100944.53;9903858;29;20206;-83
2022/07/14 02:43:03;;;;;;;11.65;2.67;;;;;;;22.40;53.98;100941.72;9895484;30;20256;-84
2022/07/14 02:48:07;;;;;;;13.32;3.25;;;;;;;22.07;55.00;100924.97;9879968;30;20198;-83
2022/07/14 02:53:11;;;;;;;9.25;2.35;;;;;;;22.23;54.23;100928.66;9865116;30;20258;-83
2022/07/14 02:58:18;;;;;;;11.43;3.55;;;;;;;21.72;55.59;100928.47;9879745;30;20213;-84
2022/07/14 03:03:22;;;;;;;9.90;2.85;;;;;;;21.57;55.93;100932.09;9906368;29;20302;-83
2022/07/14 03:08:24;;;;;;;15.85;3.92;;;;;;;21.50;55.86;100938.44;9881628;29;20213;-83
2022/07/14 03:13:27;;;;;;;12.70;3.75;;;;;;;21.82;55.42;100942.19;9907883;30;20599;-83
2022/07/14 03:18:29;;;;;;;14.70;3.83;;;;;;;22.14;54.30;100942.28;9894055;30;20258;-83
2022/07/14 03:23:32;;;;;;;7.90;2.67;;;;;;;22.08;54.69;100940.88;9891688;29;20623;-83
2022/07/14 03:28:35;;;;;;;14.82;3.53;;;;;;;21.75;55.35;100922.06;9892919;29;20229;-84
2022/07/14 03:33:38;;;;;;;9.23;3.38;;;;;;;21.89;55.28;100935.88;9876245;30;20623;-83
2022/07/14 03:38:40;;;;;;;13.60;3.90;;;;;;;21.63;55.82;100933.50;9891455;30;20274;-83
2022/07/14 03:43:45;;;;;;;12.35;3.47;;;;;;;21.44;56.43;100950.41;9889183;30;20619;-83
2022/07/14 03:48:51;;;;;;;12.75;3.13;;;;;;;20.23;60.05;100946.47;9892321;30;20225;-83
2022/07/14 03:53:53;;;;;;;14.02;3.20;;;;;;;21.07;57.88;100941.94;9892878;30;20601;-83
2022/07/14 03:58:56;;;;;;;11.48;3.38;;;;;;;20.85;58.18;100928.25;9875317;29;20201;-83
2022/07/14 04:03:59;;;;;;;12.65;3.10;;;;;;;21.47;55.98;100924.09;9895116;29;20563;-84
2022/07/14 04:09:03;;;;;;;10.55;2.63;;;;;;;20.80;57.77;100919.97;9891655;30;20265;-84
2022/07/14 04:14:08;;;;;;;16.77;3.58;;;;;;;21.34;56.52;100916.78;9874744;29;20621;-84
2022/07/14 04:19:11;;;;;;;19.02;3.80;;;;;;;20.83;58.02;100916.41;9914979;29;20213;-83
2022/07/14 04:24:17;;;;;;;15.25;3.60;;;;;;;21.12;57.43;100916.13;9891391;30;20580;-84
2022/07/14 04:29:21;;;;;;;11.95;3.47;;;;;;;21.25;56.32;100913.28;9906208;29;20260;-83
2022/07/14 04:34:23;;;;;;;17.30;4.28;;;;;;;21.21;56.56;100919.63;9876424;30;20197;-84
2022/07/14 04:39:26;;;;;;;14.82;3.60;;;;;;;20.97;57.26;100918.88;9891324;30;20202;-83
2022/07/14 04:44:29;;;;;;;13.85;3.55;;;;;;;21.03;56.93;100921.09;9876000;30;20318;-83
2022/07/14 04:54:53;;;;;;;12.68;4.47;;;;;;;21.25;56.09;100930.34;9906983;29;20193;-83
2022/07/14 05:00:28;;;;;;;15.77;4.10;;;;;;;20.92;56.82;100925.63;9908103;29;20213;-83
2022/07/14 05:05:32;;;;;;;16.60;4.05;;;;;;;20.99;56.46;100933.56;9913466;29;20349;-83
2022/07/14 05:10:35;;;;;;;14.48;3.45;;;;;;;21.27;55.93;100928.78;9906928;29;20297;-83
2022/07/14 05:15:37;;;;;;;16.48;3.97;;;;;;;21.17;55.67;100934.94;9877417;30;20202;-84
2022/07/14 05:20:40;;;;;;;16.42;4.43;;;;;;;20.73;57.26;100933.94;9875266;30;20469;-82
2022/07/14 05:25:44;;;;;;;12.45;3.70;;;;;;;20.70;57.45;100926.13;9904619;30;20248;-83
2022/07/14 05:30:47;;;;;;;15.48;3.38;;;;;;;21.00;56.75;100927.53;9885573;29;20264;-84
2022/07/14 05:35:50;;;;;;;18.23;3.95;;;;;;;21.02;56.08;100921.47;9897734;29;20255;-85
2022/07/14 05:40:53;;;;;;;16.45;3.95;;;;;;;20.22;59.42;100927.75;9868767;29;20290;-84
2022/07/14 05:46:02;;;;;;;11.77;4.03;;;;;;;20.08;58.90;100922.41;9889351;29;20309;-84
2022/07/14 05:51:11;;;;;;;17.40;4.55;;;;;;;20.80;57.32;100922.78;9890825;29;20225;-83
2022/07/14 05:56:17;;;;;;;17.27;4.90;;;;;;;20.74;57.40;100927.91;9890245;29;20647;-84
2022/07/14 06:01:21;;;;;;;25.00;5.88;;;;;;;20.77;57.26;100932.03;9891137;29;20225;-84
2022/07/14 06:06:26;;;;;;;20.00;5.45;;;;;;;19.80;60.67;100939.25;9902300;29;20252;-83
2022/07/14 06:11:28;;;;;;;16.88;4.80;;;;;;;20.41;58.71;100947.88;9896985;29;20278;-84
2022/07/14 06:16:34;;;;;;;15.30;4.07;;;;;;;21.17;56.55;100935.75;9883676;29;20206;-84
2022/07/14 06:21:36;;;;;;;18.27;5.17;;;;;;;21.74;54.33;100933.81;9874106;29;20231;-83
2022/07/14 06:26:40;;;;;;;19.13;4.18;;;;;;;21.65;54.49;100936.00;9871715;30;20287;-85
2022/07/14 06:31:42;;;;;;;14.27;4.43;;;;;;;20.98;56.26;100949.78;9882414;29;20255;-83
2022/07/14 06:36:50;;;;;;;13.98;4.47;;;;;;;21.55;53.24;100960.09;9885489;29;20718;-82
2022/07/14 06:41:52;;;;;;;24.75;6.22;;;;;;;22.07;52.67;100962.00;9887267;29;20241;-83
2022/07/14 06:47:01;;;;;;;15.95;4.85;;;;;;;21.93;53.12;100946.19;9875852;30;20229;-83
2022/07/14 06:52:06;;;;;;;15.95;5.10;;;;;;;21.44;54.66;100942.69;9907337;29;20289;-83
2022/07/14 06:57:09;;;;;;;16.90;4.93;;;;;;;21.72;54.50;100945.56;9869701;29;20237;-83
2022/07/14 07:02:12;;;;;;;20.05;5.30;;;;;;;21.80;54.18;100936.00;9873146;29;20696;-83
2022/07/14 07:07:14;;;;;;;14.77;4.63;;;;;;;21.73;53.79;100930.13;9906599;29;20298;-83
2022/07/14 07:12:17;;;;;;;16.35;5.22;;;;;;;22.26;52.19;100920.22;9894658;29;21007;-83
2022/07/14 07:17:19;;;;;;;18.25;4.18;;;;;;;22.74;50.81;100915.34;9927891;29;20298;-84
2022/07/14 07:22:22;;;;;;;17.33;4.30;;;;;;;23.16;50.06;100912.66;9895819;29;20225;-83
2022/07/14 07:27:24;;;;;;;15.40;4.00;;;;;;;22.05;51.88;100918.84;9898829;29;20259;-83
2022/07/14 07:32:27;;;;;;;13.75;3.95;;;;;;;22.85;50.09;100912.72;9903595;29;20321;-83
2022/07/14 07:37:30;;;;;;;13.50;3.00;;;;;;;22.42;50.45;100925.94;9854484;29;20611;-83
2022/07/14 07:42:32;;;;;;;13.15;3.90;;;;;;;22.62;50.68;100927.69;9898671;29;20594;-83
2022/07/14 07:47:35;;;;;;;9.50;3.17;;;;;;;23.16;48.77;100923.22;9932200;29;20678;-84
2022/07/14 07:52:38;;;;;;;9.55;3.03;;;;;;;22.15;50.97;100921.16;9890125;29;20240;-83
2022/07/14 07:57:40;;;;;;;11.77;2.83;;;;;;;22.51;50.38;100912.31;9890956;29;20281;-83
2022/07/14 08:02:48;;;;;;;11.65;3.55;;;;;;;22.98;49.40;100900.00;9886964;29;20240;-84
2022/07/14 08:07:52;;;;;;;8.40;2.55;;;;;;;21.71;46.23;100906.88;9893588;30;20236;-84
2022/07/14 08:12:54;;;;;;;8.32;2.38;;;;;;;23.84;42.97;100886.34;9909496;29;20229;-83
2022/07/14 08:17:57;;;;;;;9.25;3.13;;;;;;;24.74;42.84;100878.97;9903980;29;20289;-83
2022/07/14 08:23:00;;;;;;;13.95;3.13;;;;;;;23.88;43.40;100881.50;9892044;29;20252;-83
2022/07/14 08:28:02;;;;;;;11.68;2.78;;;;;;;24.34;42.08;100881.56;9894411;29;20225;-83
2022/07/14 08:33:05;;;;;;;6.57;2.00;;;;;;;23.83;40.77;100873.28;9902617;29;20727;-83
2022/07/14 08:38:07;;;;;;;7.13;2.42;;;;;;;23.88;40.59;100866.41;9889950;30;20539;-83
2022/07/14 08:43:14;;;;;;;7.55;2.10;;;;;;;24.54;36.38;100857.38;9889611;29;20300;-84
2022/07/14 08:48:18;;;;;;;9.27;3.17;;;;;;;23.59;40.87;100863.03;9905279;29;20236;-83
2022/07/14 08:53:21;;;;;;;14.30;3.30;;;;;;;22.98;43.64;100862.91;9895747;29;20197;-83
2022/07/14 08:58:24;;;;;;;10.95;3.05;;;;;;;22.24;45.19;100867.66;9903976;29;20792;-82
2022/07/14 09:03:27;;;;;;;9.55;3.08;;;;;;;23.35;42.10;100853.97;9889119;29;20297;-82
2022/07/14 09:08:55;;;;;;;9.20;3.55;;;;;;;22.24;45.64;100859.94;9882006;29;20676;-82
2022/07/14 09:14:09;;;;;;;7.97;3.90;;;;;;;22.74;45.33;100846.06;9907318;29;20724;-83
2022/07/14 09:19:13;;;;;;;9.35;4.05;;;;;;;23.85;43.69;100845.16;9911335;29;20610;-83
2022/07/14 09:24:16;;;;;;;11.88;4.50;;;;;;;23.33;43.26;100843.75;9892710;29;20607;-84
2022/07/14 09:29:25;;;;;;;14.68;4.45;;;;;;;24.34;41.13;100852.97;9890631;29;20284;-83
2022/07/14 09:34:31;;;;;;;9.32;3.83;;;;;;;22.67;42.91;100854.47;9907981;29;20236;-83
2022/07/14 09:39:54;;;;;;;12.35;3.40;;;;;;;22.73;40.51;100852.97;9890738;29;20236;-83
2022/07/14 09:45:08;;;;;;;9.23;2.80;;;;;;;23.88;38.97;100844.38;9890803;30;20252;-83
2022/07/14 09:50:11;;;;;;;9.48;2.20;;;;;;;25.13;36.68;100844.38;9903853;29;20225;-86
2022/07/14 09:55:24;;;;;;;6.47;2.25;;;;;;;24.95;34.66;100844.13;9905983;29;20246;-86
2022/07/14 10:00:26;;;;;;;9.07;2.05;;;;;;;25.45;32.39;100839.88;9904644;29;20221;-82
2022/07/14 10:05:32;;;;;;;5.53;1.70;;;;;;;24.11;35.21;100855.03;9907073;29;20244;-82
2022/07/14 10:10:35;;;;;;;10.32;1.90;;;;;;;25.72;33.31;100834.84;9904851;29;20224;-82
2022/07/14 10:15:38;;;;;;;7.10;1.35;;;;;;;25.04;34.62;100830.34;9905502;29;20236;-82
2022/07/14 10:20:40;;;;;;;5.95;1.30;;;;;;;24.50;35.79;100833.63;9894504;29;20531;-83
2022/07/14 10:25:45;;;;;;;4.90;0.93;;;;;;;25.00;34.10;100826.63;9907520;29;20253;-82
2022/07/14 10:31:14;;;;;;;6.85;1.20;;;;;;;25.07;34.41;100823.03;9890460;29;20607;-82
2022/07/14 10:36:17;;;;;;;5.88;0.80;;;;;;;25.36;32.52;100839.38;9912811;29;20251;-82
2022/07/14 10:41:43;;;;;;;4.63;0.80;;;;;;;26.18;30.21;100833.69;9909145;29;20233;-83
2022/07/14 10:46:47;;;;;;;4.60;1.00;;;;;;;26.07;30.49;100825.81;9914471;29;20646;-83
2022/07/14 10:51:51;;;;;;;3.42;0.90;;;;;;;26.03;30.94;100827.81;9912880;29;20206;-82
2022/07/14 10:57:14;;;;;;;3.05;0.82;;;;;;;26.74;28.32;100814.03;9881687;30;20619;-84
2022/07/14 11:02:18;;;;;;;3.47;0.52;;;;;;;25.97;28.87;100826.53;9912541;29;20225;-84
2022/07/14 11:07:36;;;;;;;5.97;0.90;;;;;;;25.25;30.39;100814.69;9913460;30;20493;-83
2022/07/14 11:13:04;;;;;;;3.55;0.50;;;;;;;27.46;29.60;100800.84;9926250;29;20227;-83
2022/07/14 11:18:20;;;;;;;3.03;0.65;;;;;;;26.49;27.14;100801.56;9921615;29;20232;-83
2022/07/14 11:23:49;;;;;;;5.22;0.55;;;;;;;26.32;29.81;100813.75;9912573;30;20213;-83
2022/07/14 11:28:52;;;;;;;2.20;0.75;;;;;;;25.83;30.88;100816.97;9907498;29;20264;-83
2022/07/14 11:39:20;;;;;;;2.97;0.80;;;;;;;25.56;30.05;100804.84;9909793;29;20254;-83
2022/07/14 11:44:41;;;;;;;4.88;0.90;;;;;;;27.15;29.02;100793.75;9895253;29;20249;-82
2022/07/14 11:49:51;;;;;;;3.42;0.50;;;;;;;25.73;27.71;100805.00;9893318;29;20882;-84
2022/07/14 11:54:55;;;;;;;1.13;0.40;;;;;;;25.18;29.45;100812.56;9928363;29;20202;-83
2022/07/14 12:00:08;;;;;;;6.22;0.60;;;;;;;26.01;29.03;100818.81;9910641;29;20254;-84
2022/07/14 12:05:11;;;;;;;3.85;0.60;;;;;;;26.83;27.73;100797.28;9894205;29;20310;-84
2022/07/14 12:10:15;;;;;;;5.20;1.38;;;;;;;27.27;27.55;100790.50;9911602;29;20213;-83
2022/07/14 12:15:23;;;;;;;2.55;0.60;;;;;;;26.88;26.70;100781.72;9896414;30;20202;-83
2022/07/14 12:20:25;;;;;;;2.90;0.50;;;;;;;25.85;29.38;100783.03;9896189;29;20250;-83
2022/07/14 12:25:33;;;;;;;0.50;0.30;;;;;;;27.40;26.57;100771.69;9912483;29;20213;-83
2022/07/14 12:30:45;;;;;;;1.63;0.55;;;;;;;25.95;28.06;100776.59;9880249;29;20255;-84
2022/07/14 12:35:51;;;;;;;5.47;0.63;;;;;;;26.60;28.06;100773.78;9909885;29;20238;-85
2022/07/14 12:40:57;;;;;;;3.40;0.50;;;;;;;26.91;27.36;100778.06;9893125;29;20209;-84
2022/07/14 12:46:13;;;;;;;5.13;0.50;;;;;;;26.74;26.52;100773.88;9907825;29;20249;-85
2022/07/14 12:51:28;;;;;;;6.68;0.95;;;;;;;26.53;27.72;100768.00;9908944;29;20251;-85
2022/07/14 12:56:43;;;;;;;4.20;0.63;;;;;;;26.83;27.08;100776.38;9891562;30;20231;-83
2022/07/14 13:01:52;;;;;;;3.38;0.80;;;;;;;27.37;26.84;100781.13;9908982;30;20201;-81
2022/07/14 13:06:56;;;;;;;2.40;0.60;;;;;;;26.89;27.94;100782.53;9908866;29;20241;-85
2022/07/14 13:11:58;;;;;;;5.22;1.00;;;;;;;26.85;27.29;100777.63;9923782;29;20820;-81
2022/07/14 13:17:00;;;;;;;4.10;0.50;;;;;;;26.45;28.49;100787.25;9895562;30;20665;-84
2022/07/14 13:22:07;;;;;;;3.08;0.45;;;;;;;27.47;26.32;100794.69;9893861;30;20217;-83
2022/07/14 13:27:15;;;;;;;4.72;0.63;;;;;;;25.75;28.26;100790.28;9910025;29;20228;-83
2022/07/14 13:32:21;;;;;;;2.08;0.32;;;;;;;25.62;29.31;100806.09;9894766;29;20225;-83
2022/07/14 13:37:23;;;;;;;6.05;0.35;;;;;;;27.15;27.39;100788.00;9898821;29;20243;-83
2022/07/14 13:42:25;;;;;;;2.10;0.60;;;;;;;27.05;27.47;100794.53;9908949;30;20499;-82
2022/07/14 13:47:28;;;;;;;2.90;0.40;;;;;;;24.80;29.15;100795.69;9891642;30;20293;-82
2022/07/14 13:52:30;;;;;;;2.75;0.30;;;;;;;26.46;26.13;100806.09;9908110;29;20204;-83
2022/07/14 13:57:32;;;;;;;1.55;0.65;;;;;;;25.92;27.82;100821.19;9893587;30;20197;-82
2022/07/14 14:03:23;;;;;;;0.93;0.40;;;;;;;25.94;27.97;100815.88;9907813;29;20266;-82
2022/07/14 14:07:58;;;;;;;5.93;0.43;;;;;;;26.69;27.84;100808.69;9908169;30;20296;-82
2022/07/14 14:13:00;;;;;;;1.75;0.45;;;;;;;26.97;27.91;100801.50;9908151;29;20242;-81
2022/07/14 14:18:02;;;;;;;3.33;0.47;;;;;;;26.86;27.46;100821.50;9905884;29;20286;-82
2022/07/14 14:23:05;;;;;;;2.38;0.50;;;;;;;26.88;27.23;100815.34;9903927;29;20575;-80
2022/07/14 14:28:17;;;;;;;6.47;0.50;;;;;;;27.32;27.07;100820.91;9909284;29;20249;-81
2022/07/14 14:33:19;;;;;;;4.53;0.47;;;;;;;27.94;26.47;100798.47;9922433;29;20232;-80
2022/07/14 14:38:22;;;;;;;4.70;0.60;;;;;;;27.92;26.79;100806.69;9892078;30;20254;-81
2022/07/14 14:43:24;;;;;;;2.67;0.32;;;;;;;26.67;27.36;100816.88;9906022;30;20209;-80
2022/07/14 14:48:27;;;;;;;1.70;0.40;;;;;;;26.12;28.15;100816.03;9905810;29;20305;-80
2022/07/14 14:53:30;;;;;;;1.27;0.40;;;;;;;26.75;27.17;100820.59;9906200;29;20202;-81
2022/07/14 14:58:32;;;;;;;0.95;0.30;;;;;;;27.27;27.08;100807.75;9907615;29;20308;-80
2022/07/14 15:03:34;;;;;;;3.60;0.30;;;;;;;26.34;28.24;100822.78;9876001;30;20210;-81
2022/07/14 15:08:37;;;;;;;1.17;0.50;;;;;;;26.92;27.66;100825.63;9896498;29;20252;-80
2022/07/14 15:13:39;;;;;;;2.78;0.60;;;;;;;27.37;25.17;100818.47;9901409;29;20201;-81
2022/07/14 15:18:42;;;;;;;2.15;0.50;;;;;;;26.63;26.58;100824.63;9913686;29;20193;-81
2022/07/14 15:23:44;;;;;;;0.98;0.30;;;;;;;26.55;27.36;100834.41;9907579;29;20237;-82
2022/07/14 15:28:46;;;;;;;5.68;0.60;;;;;;;26.44;26.84;100836.38;9913302;29;20271;-80
2022/07/14 15:33:50;;;;;;;1.75;0.47;;;;;;;26.54;26.95;100827.03;9895050;29;20278;-81
2022/07/14 15:44:13;;;;;;;3.65;0.47;;;;;;;25.79;28.03;100834.16;9911874;30;20197;-79
2022/07/14 15:49:16;;;;;;;2.05;0.50;;;;;;;26.07;27.47;100837.28;9915648;29;20209;-79
2022/07/14 15:54:18;;;;;;;1.20;0.40;;;;;;;26.83;25.43;100828.84;9896527;29;20295;-78
2022/07/14 15:59:20;;;;;;;1.70;0.40;;;;;;;26.55;26.98;100822.94;9885325;29;20201;-77
2022/07/14 16:04:24;;;;;;;2.47;0.57;;;;;;;26.88;26.57;100812.47;9896713;30;20229;-78
2022/07/14 16:09:26;;;;;;;1.00;0.43;;;;;;;26.58;28.08;100824.19;9907093;29;20209;-77
2022/07/14 16:14:28;;;;;;;1.63;0.38;;;;;;;26.28;27.54;100818.63;9911260;29;20672;-78
2022/07/14 16:19:32;;;;;;;1.67;0.40;;;;;;;26.20;27.93;100823.47;9909875;29;20241;-80
2022/07/14 16:24:35;;;;;;;5.57;0.55;;;;;;;26.02;27.40;100822.50;9880969;29;20266;-80
2022/07/14 16:29:38;;;;;;;4.70;0.85;;;;;;;27.00;27.14;100807.22;9911127;29;20253;-79
2022/07/14 16:34:41;;;;;;;1.30;0.50;;;;;;;26.83;27.97;100805.91;9909277;29;20685;-80
2022/07/14 16:39:43;;;;;;;2.67;0.50;;;;;;;26.44;27.22;100813.44;9904664;29;20720;-81
2022/07/14 16:44:46;;;;;;;2.88;0.68;;;;;;;26.32;28.12;100808.00;9911262;29;20254;-80
2022/07/14 16:49:48;;;;;;;2.17;0.90;;;;;;;26.87;27.73;100808.78;9909092;29;20275;-80
2022/07/14 16:54:50;;;;;;;1.75;0.50;;;;;;;25.91;28.72;100816.66;9910948;29;20209;-82
2022/07/14 16:59:53;;;;;;;1.70;0.57;;;;;;;26.38;28.25;100809.28;9926588;29;20205;-84
2022/07/14 17:04:56;;;;;;;2.40;0.60;;;;;;;26.32;28.99;100810.88;9895562;29;20225;-81
2022/07/14 17:09:59;;;;;;;4.22;0.95;;;;;;;26.31;28.34;100806.34;9881032;29;20577;-81
2022/07/14 17:15:01;;;;;;;1.50;0.65;;;;;;;25.89;29.43;100807.63;9908986;29;20205;-82
2022/07/14 17:20:05;;;;;;;3.20;0.77;;;;;;;26.56;28.27;100807.38;9895665;29;20274;-81
2022/07/14 17:25:08;;;;;;;1.98;0.63;;;;;;;26.48;28.76;100806.50;9908711;29;20314;-80
2022/07/14 17:30:10;;;;;;;1.48;0.90;;;;;;;26.17;28.69;100807.06;9894283;29;20651;-81
2022/07/14 17:35:13;;;;;;;1.70;0.70;;;;;;;26.04;29.01;100820.06;9893109;30;20194;-82
2022/07/14 17:40:15;;;;;;;3.90;0.73;;;;;;;26.51;28.74;100807.75;9907981;30;20259;-82
2022/07/14 17:45:26;;;;;;;4.40;0.80;;;;;;;25.47;29.78;100802.25;9894279;30;20242;-80
2022/07/14 17:50:29;;;;;;;5.13;0.60;;;;;;;25.52;29.71;100810.50;9904369;29;20224;-79
2022/07/14 17:55:32;;;;;;;3.40;0.60;;;;;;;25.65;30.04;100813.91;9905305;29;20229;-82
2022/07/14 18:00:34;;;;;;;1.90;0.90;;;;;;;25.00;30.75;100815.19;9891079;29;20282;-79
2022/07/14 18:05:37;;;;;;;1.75;0.47;;;;;;;25.06;31.69;100821.38;9891350;29;20237;-81
2022/07/14 18:10:39;;;;;;;1.52;0.60;;;;;;;25.02;30.92;100820.53;9890370;29;20197;-82
2022/07/14 18:15:42;;;;;;;4.32;0.73;;;;;;;25.94;30.12;100827.34;9905442;29;20270;-80
2022/07/14 18:20:45;;;;;;;1.65;0.55;;;;;;;25.00;31.08;100828.66;9908002;29;20209;-79
2022/07/14 18:25:47;;;;;;;2.78;0.57;;;;;;;25.06;31.34;100835.66;9907171;30;20247;-82
2022/07/14 18:30:49;;;;;;;2.45;0.98;;;;;;;25.63;30.31;100834.34;9906604;29;20256;-82
2022/07/14 18:35:51;;;;;;;3.53;0.50;;;;;;;24.96;31.74;100836.38;9916109;29;20275;-81
2022/07/14 18:40:54;;;;;;;2.47;0.70;;;;;;;24.92;31.34;100844.06;9909297;29;20231;-81
2022/07/14 18:51:26;;;;;;;2.50;0.77;;;;;;;23.94;32.28;100857.19;9914265;29;20205;-83
2022/07/14 18:56:29;;;;;;;2.35;0.70;;;;;;;25.26;30.44;100854.38;9903361;29;20225;-82
2022/07/14 19:01:33;;;;;;;1.65;0.50;;;;;;;25.25;30.55;100858.47;9892540;29;20274;-82
2022/07/14 19:06:36;;;;;;;2.72;0.82;;;;;;;23.97;32.10;100873.56;9906443;29;20793;-82
2022/07/14 19:11:38;;;;;;;2.33;0.60;;;;;;;24.68;33.07;100873.97;9891893;30;20305;-83
2022/07/14 19:16:42;;;;;;;1.40;0.63;;;;;;;23.63;33.53;100880.22;9874563;29;20225;-82
2022/07/14 19:21:45;;;;;;;1.90;0.55;;;;;;;24.33;32.06;100886.44;9907376;29;20269;-82
2022/07/14 19:26:47;;;;;;;1.92;0.60;;;;;;;24.12;32.93;100890.97;9906877;30;20797;-83
2022/07/14 19:31:51;;;;;;;1.90;0.60;;;;;;;23.95;34.15;100884.56;9905884;29;20298;-83
2022/07/14 19:36:53;;;;;;;4.47;0.60;;;;;;;24.42;33.36;100900.47;9906228;29;20672;-86
2022/07/14 19:41:55;;;;;;;3.85;0.77;;;;;;;24.21;32.97;100905.81;9875439;29;20771;-82
2022/07/14 19:46:59;;;;;;;1.75;0.50;;;;;;;23.76;34.20;100913.09;9875138;29;20318;-83
2022/07/14 19:52:01;;;;;;;2.45;0.60;;;;;;;24.26;33.61;100920.63;9906277;29;20237;-84
2022/07/14 19:57:04;;;;;;;2.63;0.38;;;;;;;24.17;33.68;100928.63;9904389;29;20603;-83
2022/07/14 20:02:06;;;;;;;3.35;0.47;;;;;;;24.01;34.90;100925.03;9890169;30;20250;-86
2022/07/14 20:07:10;;;;;;;1.20;0.38;;;;;;;24.19;34.41;100931.09;9862813;29;20241;-82
2022/07/14 20:12:12;;;;;;;1.63;0.65;;;;;;;24.15;34.38;100924.47;9889915;29;20286;-83
2022/07/14 20:17:14;;;;;;;2.33;0.47;;;;;;;24.28;35.68;100935.34;9909507;29;20233;-82
2022/07/14 20:22:18;;;;;;;2.75;0.60;;;;;;;23.98;35.17;100934.41;9889283;30;20228;-82
2022/07/14 20:32:48;;;;;;;2.50;0.60;;;;;;;23.91;36.03;100955.03;9907384;29;20316;-81
2022/07/14 20:37:51;;;;;;;3.42;0.90;;;;;;;23.77;35.92;100945.34;9904456;30;20233;-81
2022/07/14 20:42:53;;;;;;;6.50;0.65;;;;;;;23.40;36.81;100951.53;9889611;29;20245;-81
2022/07/14 20:47:55;;;;;;;0.90;0.43;;;;;;;23.61;36.78;100954.84;9891398;30;20314;-81
2022/07/14 20:52:58;;;;;;;6.05;0.70;;;;;;;23.41;37.17;100958.06;9889284;30;20298;-81
2022/07/14 20:58:00;;;;;;;2.00;0.47;;;;;;;23.26;37.69;100956.88;9918975;29;20232;-83
2022/07/14 21:03:02;;;;;;;2.20;0.70;;;;;;;22.99;38.06;100967.25;9908332;29;20302;-81
2022/07/14 21:08:05;;;;;;;2.58;0.60;;;;;;;23.55;37.28;100961.22;9903725;29;20249;-82
2022/07/14 21:13:09;;;;;;;1.92;0.50;;;;;;;23.52;38.01;100961.97;9886865;29;20236;-81
2022/07/14 21:18:11;;;;;;;2.20;0.50;;;;;;;23.46;37.03;100972.03;9892577;29;20225;-82
2022/07/14 21:23:14;;;;;;;2.72;0.85;;;;;;;22.63;39.38;100980.66;9901307;30;20231;-81
2022/07/14 21:28:16;;;;;;;3.08;0.63;;;;;;;22.72;38.08;100982.47;9891707;29;20699;-82
2022/07/14 21:33:19;;;;;;;2.38;0.50;;;;;;;22.84;38.18;100979.50;9887135;30;20233;-82
2022/07/14 21:38:21;;;;;;;4.30;0.40;;;;;;;21.99;39.86;100986.63;9902181;29;20229;-82
2022/07/14 21:43:23;;;;;;;1.33;0.43;;;;;;;22.19;39.39;100993.25;9902426;30;20221;-83
2022/07/14 21:48:26;;;;;;;2.90;0.70;;;;;;;22.25;39.33;100991.81;9885685;30;20248;-83
2022/07/14 21:53:28;;;;;;;5.15;0.65;;;;;;;22.08;39.75;100998.66;9915186;29;20221;-83
2022/07/14 21:58:31;;;;;;;4.13;0.73;;;;;;;22.16;39.74;100992.00;9870118;30;20258;-83
2022/07/14 22:03:34;;;;;;;2.05;0.35;;;;;;;22.52;39.21;100995.78;9905871;29;20310;-82
2022/07/14 22:08:36;;;;;;;2.42;0.60;;;;;;;21.57;41.53;100991.88;9888055;30;20282;-83
2022/07/14 22:13:39;;;;;;;3.75;0.93;;;;;;;22.07;40.36;101001.88;9886217;30;20262;-83
2022/07/14 22:18:42;;;;;;;2.53;0.80;;;;;;;21.83;41.02;101008.50;9885498;30;20358;-83
2022/07/14 22:23:44;;;;;;;2.40;0.80;;;;;;;21.36;42.51;101005.44;9901945;30;20759;-82
2022/07/14 22:28:47;;;;;;;2.03;0.80;;;;;;;21.42;42.99;101009.69;9890196;29;20253;-83
2022/07/14 22:33:49;;;;;;;3.00;0.80;;;;;;;21.65;42.72;101012.84;9881784;30;20264;-82
2022/07/14 22:38:52;;;;;;;3.78;0.95;;;;;;;21.44;42.73;101019.53;9904407;29;20311;-83
2022/07/14 22:43:54;;;;;;;5.63;1.17;;;;;;;21.28;43.80;101020.66;9882740;30;20225;-82
2022/07/14 22:48:56;;;;;;;2.25;0.73;;;;;;;21.43;43.66;101022.72;9883924;30;20331;-83
2022/07/14 22:54:04;;;;;;;2.30;0.90;;;;;;;21.90;42.98;101031.50;9897434;29;20571;-83
2022/07/14 22:59:08;;;;;;;3.00;0.82;;;;;;;21.54;43.43;101038.09;9900743;29;20282;-83
2022/07/14 23:04:11;;;;;;;3.05;0.75;;;;;;;21.13;44.91;101030.69;9883752;29;20688;-82
2022/07/14 23:09:18;;;;;;;4.35;1.08;;;;;;;21.54;44.00;101032.41;9900217;30;20312;-82
2022/07/14 23:14:20;;;;;;;5.82;1.15;;;;;;;21.64;43.74;101028.25;9884555;30;20735;-82
2022/07/14 23:19:22;;;;;;;2.40;1.13;;;;;;;21.09;44.92;101036.25;9899909;30;20224;-83
2022/07/14 23:24:25;;;;;;;2.05;0.90;;;;;;;21.35;44.90;101040.78;9886143;30;20691;-82
2022/07/14 23:29:27;;;;;;;2.45;1.00;;;;;;;21.32;45.30;101041.47;9906672;29;20548;-83
2022/07/14 23:34:30;;;;;;;4.22;0.90;;;;;;;21.54;44.72;101043.81;9863152;30;20209;-82
2022/07/14 23:39:32;;;;;;;4.85;1.25;;;;;;;21.40;44.94;101041.38;9921240;29;20230;-82
2022/07/14 23:44:35;;;;;;;3.88;0.73;;;;;;;21.29;45.59;101051.56;9908567;30;20197;-82
2022/07/14 23:49:38;;;;;;;2.47;1.05;;;;;;;21.33;45.13;101051.69;9904148;29;20241;-83
2022/07/14 23:54:40;;;;;;;4.38;0.80;;;;;;;20.89;46.17;101053.47;9902767;30;20237;-82